Time;durP1;ratioP1;P1;durP2;ratioP2;P2;SDS_P1;SDS_P2;PMS_P1;PMS_P2;Temp;Humidity;BMP_temperature;BMP_pressure;BME280_temperature;BME280_humidity;BME280_pressure;Samples;Min_cycle;Max_cycle;Signal;HPM_P1;HPM_P2
2022/09/07 00:01:36;;;;;;;2.70;1.30;;;17.80;66.10;;;;;;4170111;28;20124;-42
2022/09/07 00:03:59;;;;;;;5.32;1.80;;;17.80;66.10;;;;;;4163968;28;20127;-44
2022/09/07 00:06:22;;;;;;;3.47;1.40;;;17.90;66.10;;;;;;4163838;28;20025;-45
2022/09/07 00:08:45;;;;;;;3.05;1.42;;;17.90;66.00;;;;;;4168270;28;20049;-46
2022/09/07 00:11:12;;;;;;;4.10;1.30;;;18.00;65.90;;;;;;4167411;28;20036;-44
2022/09/07 00:13:37;;;;;;;3.72;1.50;;;18.00;65.80;;;;;;4153990;28;20168;-43
2022/09/07 00:16:05;;;;;;;4.05;1.55;;;18.00;65.70;;;;;;4157212;28;20064;-45
2022/09/07 00:18:27;;;;;;;2.95;1.60;;;18.10;65.70;;;;;;4154336;28;20038;-45
2022/09/07 00:21:05;;;;;;;3.60;1.40;;;18.20;65.40;;;;;;4158725;28;20041;-43
2022/09/07 00:23:29;;;;;;;3.75;1.33;;;18.20;65.30;;;;;;4162626;28;20171;-43
2022/09/07 00:25:52;;;;;;;2.13;1.33;;;18.30;65.20;;;;;;4157330;28;20041;-49
2022/09/07 00:28:14;;;;;;;2.83;1.20;;;18.30;65.10;;;;;;4163113;28;20040;-46
2022/09/07 00:30:41;;;;;;;4.20;1.60;;;18.40;65.00;;;;;;4162301;28;20033;-46
2022/09/07 00:33:04;;;;;;;4.22;1.30;;;18.40;64.90;;;;;;4159892;28;20068;-44
2022/09/07 00:35:27;;;;;;;2.33;1.52;;;18.50;64.80;;;;;;4149608;28;20045;-42
2022/09/07 00:37:49;;;;;;;2.88;1.42;;;18.50;64.80;;;;;;4152193;28;20155;-45
2022/09/07 00:40:12;;;;;;;4.93;1.95;;;18.50;64.70;;;;;;4160175;28;20349;-48
2022/09/07 00:42:34;;;;;;;3.55;1.48;;;18.50;64.70;;;;;;4157310;28;20515;-43
2022/09/07 00:45:17;;;;;;;2.78;1.40;;;18.60;64.70;;;;;;4157826;28;20839;-45
2022/09/07 00:47:59;;;;;;;1.90;1.20;;;18.60;64.60;;;;;;4162304;28;20154;-46
2022/09/07 00:50:40;;;;;;;1.77;1.25;;;18.60;64.50;;;;;;4135748;28;20043;-45
2022/09/07 00:53:35;;;;;;;3.35;1.33;;;18.70;64.50;;;;;;4158916;28;20143;-45
2022/09/07 00:56:00;;;;;;;4.18;1.75;;;18.70;64.40;;;;;;4153577;28;20063;-46
2022/09/07 00:58:24;;;;;;;1.83;1.10;;;18.80;64.40;;;;;;4162847;28;20057;-44
2022/09/07 01:00:49;;;;;;;2.70;1.20;;;18.80;64.20;;;;;;4153380;28;20117;-47
2022/09/07 01:03:13;;;;;;;4.47;1.63;;;18.80;64.00;;;;;;4153087;28;20037;-49
2022/09/07 01:05:45;;;;;;;3.40;1.38;;;18.80;64.00;;;;;;4136409;28;20048;-44
2022/09/07 01:08:09;;;;;;;2.90;1.40;;;18.80;63.90;;;;;;4158181;28;21485;-43
2022/09/07 01:10:32;;;;;;;1.83;1.48;;;18.70;63.10;;;;;;4155863;28;20045;-48
2022/09/07 01:12:54;;;;;;;3.13;1.40;;;18.70;62.30;;;;;;4160903;28;20106;-43
2022/09/07 01:15:17;;;;;;;6.10;1.92;;;18.70;62.40;;;;;;4157889;28;20443;-45
2022/09/07 01:17:56;;;;;;;4.00;1.80;;;18.70;62.50;;;;;;4161772;28;20033;-45
2022/09/07 01:20:50;;;;;;;3.63;1.48;;;18.60;62.70;;;;;;4164303;28;20363;-45
2022/09/07 01:23:23;;;;;;;3.13;1.60;;;18.60;63.00;;;;;;4145307;28;20047;-45
2022/09/07 01:25:52;;;;;;;3.95;1.55;;;18.60;63.00;;;;;;4161589;28;20052;-45
2022/09/07 01:28:22;;;;;;;3.17;1.60;;;18.60;63.00;;;;;;4163705;28;20430;-45
2022/09/07 01:31:19;;;;;;;3.17;1.50;;;18.60;63.00;;;;;;4166702;28;20106;-44
2022/09/07 01:34:10;;;;;;;2.25;1.38;;;18.60;63.00;;;;;;4151412;28;20044;-46
2022/09/07 01:36:47;;;;;;;2.85;1.50;;;18.60;62.90;;;;;;4158982;28;20041;-46
2022/09/07 01:39:11;;;;;;;1.58;1.27;;;18.60;62.80;;;;;;4155267;28;20049;-48
2022/09/07 01:41:47;;;;;;;1.73;1.30;;;18.60;62.90;;;;;;4155638;28;20113;-48
2022/09/07 01:44:12;;;;;;;1.58;1.02;;;18.60;63.00;;;;;;4146297;28;20755;-51
2022/09/07 01:47:12;;;;;;;1.80;1.15;;;18.60;63.00;;;;;;4165645;28;20044;-45
2022/09/07 01:49:35;;;;;;;2.20;1.20;;;18.60;63.00;;;;;;4139286;28;20120;-44
2022/09/07 01:52:06;;;;;;;1.13;0.90;;;18.60;63.10;;;;;;4148803;28;20029;-44
2022/09/07 01:54:59;;;;;;;1.20;1.10;;;18.60;63.10;;;;;;4162832;28;20041;-47
2022/09/07 01:57:27;;;;;;;3.10;1.10;;;18.60;63.20;;;;;;4164888;28;20033;-45
2022/09/07 02:00:07;;;;;;;1.20;1.10;;;18.60;63.10;;;;;;4162415;28;20538;-46
2022/09/07 02:02:36;;;;;;;2.78;1.20;;;18.60;63.20;;;;;;4163147;28;20033;-48
2022/09/07 02:05:14;;;;;;;1.15;0.95;;;18.70;63.20;;;;;;4161642;28;20545;-45
2022/09/07 02:08:12;;;;;;;1.85;1.00;;;18.70;63.20;;;;;;4159694;28;20045;-44
2022/09/07 02:10:40;;;;;;;2.60;0.90;;;18.70;63.20;;;;;;4151828;28;20132;-44
2022/09/07 02:13:33;;;;;;;1.52;1.10;;;18.70;63.20;;;;;;4152582;28;20519;-45
2022/09/07 02:16:14;;;;;;;1.40;0.80;;;18.70;63.20;;;;;;4153456;28;20049;-44
2022/09/07 02:18:52;;;;;;;1.42;0.90;;;18.80;63.30;;;;;;4159898;28;20037;-42
2022/09/07 02:21:18;;;;;;;2.30;1.00;;;18.80;63.20;;;;;;4161460;28;20041;-44
2022/09/07 02:23:50;;;;;;;1.98;1.23;;;18.90;63.20;;;;;;4157553;28;20047;-47
2022/09/07 02:26:20;;;;;;;4.18;1.27;;;19.00;63.40;;;;;;4141968;28;20183;-43
2022/09/07 02:28:43;;;;;;;1.40;0.77;;;19.00;63.30;;;;;;4152971;28;20115;-44
2022/09/07 02:31:07;;;;;;;3.10;1.27;;;19.10;62.60;;;;;;4156780;28;20102;-42
2022/09/07 02:33:30;;;;;;;3.63;1.55;;;19.10;61.80;;;;;;4156300;28;20119;-43
2022/09/07 02:35:52;;;;;;;1.73;1.05;;;19.10;61.50;;;;;;4153933;28;20111;-45
2022/09/07 02:38:15;;;;;;;2.47;1.08;;;19.00;61.40;;;;;;4153840;28;20051;-49
2022/09/07 02:40:38;;;;;;;2.33;1.33;;;19.00;61.40;;;;;;4155716;28;20491;-44
2022/09/07 02:43:05;;;;;;;4.57;1.13;;;18.90;62.30;;;;;;4142096;28;20049;-52
2022/09/07 02:45:50;;;;;;;1.90;1.20;;;19.00;63.10;;;;;;4155306;28;20064;-43
2022/09/07 02:48:28;;;;;;;2.42;1.40;;;19.00;63.50;;;;;;4151057;28;20565;-44
2022/09/07 02:51:28;;;;;;;2.13;1.20;;;19.00;64.00;;;;;;4158696;28;20506;-43
2022/09/07 02:54:04;;;;;;;2.70;1.40;;;19.10;64.20;;;;;;4159710;28;20431;-42
2022/09/07 02:56:39;;;;;;;7.55;1.60;;;19.10;64.40;;;;;;4161211;28;20037;-44
2022/09/07 02:59:37;;;;;;;2.17;1.20;;;19.20;64.50;;;;;;4164208;28;20129;-49
2022/09/07 03:02:20;;;;;;;2.40;1.33;;;19.20;64.50;;;;;;4162079;28;20120;-47
2022/09/07 03:05:03;;;;;;;11.85;1.95;;;19.30;64.40;;;;;;4143485;28;20144;-45
2022/09/07 03:07:41;;;;;;;7.10;1.83;;;19.30;64.40;;;;;;4163349;28;20435;-42
2022/09/07 03:10:06;;;;;;;4.40;1.35;;;19.30;64.50;;;;;;4156783;28;20506;-44
2022/09/07 03:12:49;;;;;;;2.67;1.10;;;19.30;64.60;;;;;;4155198;28;20107;-44
2022/09/07 03:15:14;;;;;;;3.63;1.40;;;19.40;64.60;;;;;;4155068;28;20064;-44
2022/09/07 03:17:36;;;;;;;4.05;1.38;;;19.40;64.50;;;;;;4163210;28;20518;-43
2022/09/07 03:20:00;;;;;;;4.53;2.15;;;19.50;63.80;;;;;;4160036;28;20042;-43
2022/09/07 03:22:22;;;;;;;4.55;1.83;;;19.50;63.70;;;;;;4155480;28;20483;-51
2022/09/07 03:24:45;;;;;;;7.45;1.80;;;19.50;64.20;;;;;;4158048;28;20054;-51
2022/09/07 03:27:11;;;;;;;3.42;1.67;;;19.50;63.30;;;;;;4156347;28;20068;-47
2022/09/07 03:29:34;;;;;;;2.63;1.52;;;19.50;62.60;;;;;;4153638;28;20060;-46
2022/09/07 03:31:56;;;;;;;5.25;1.77;;;19.50;62.70;;;;;;4152355;28;20045;-43
2022/09/07 03:34:19;;;;;;;4.03;1.33;;;19.60;63.10;;;;;;4154630;28;20554;-44
2022/09/07 03:36:42;;;;;;;2.55;1.40;;;19.60;63.50;;;;;;4161565;28;20087;-44
2022/09/07 03:39:05;;;;;;;3.50;1.55;;;19.70;63.60;;;;;;4163763;28;20135;-44
2022/09/07 03:41:28;;;;;;;6.57;1.27;;;19.80;63.50;;;;;;4167865;28;20956;-44
2022/09/07 03:43:51;;;;;;;1.77;1.33;;;19.80;63.50;;;;;;4165701;28;20057;-46
2022/09/07 03:46:18;;;;;;;3.75;1.38;;;19.90;63.50;;;;;;4147719;28;20045;-43
2022/09/07 03:48:40;;;;;;;3.78;1.33;;;20.00;63.50;;;;;;4158736;28;20557;-44
2022/09/07 03:51:05;;;;;;;3.03;1.05;;;20.10;63.30;;;;;;4166270;28;20033;-43
2022/09/07 03:53:35;;;;;;;1.63;0.85;;;20.20;63.40;;;;;;4164229;28;20037;-43
2022/09/07 03:56:06;;;;;;;3.10;1.10;;;20.20;63.20;;;;;;4157385;28;20121;-44
2022/09/07 03:58:30;;;;;;;3.15;1.15;;;20.30;63.30;;;;;;4159810;28;20574;-44
2022/09/07 04:00:52;;;;;;;2.53;0.90;;;20.30;63.20;;;;;;4155198;28;20041;-43
2022/09/07 04:03:15;;;;;;;2.63;1.10;;;20.40;63.10;;;;;;4152505;28;20080;-44
2022/09/07 04:05:37;;;;;;;2.83;0.90;;;20.50;63.00;;;;;;4158232;28;20041;-45
2022/09/07 04:08:00;;;;;;;2.13;0.93;;;20.60;62.90;;;;;;4163238;28;20541;-45
2022/09/07 04:10:22;;;;;;;1.85;1.00;;;20.60;62.80;;;;;;4159551;28;20174;-43
2022/09/07 04:12:45;;;;;;;2.10;0.82;;;20.70;62.70;;;;;;4171957;28;20043;-48
2022/09/07 04:15:08;;;;;;;3.33;1.15;;;20.80;62.40;;;;;;4158658;28;20037;-41
2022/09/07 04:17:31;;;;;;;3.92;1.15;;;20.70;61.50;;;;;;4170896;28;20044;-42
2022/09/07 04:19:54;;;;;;;2.55;1.27;;;20.80;61.50;;;;;;4165266;28;20191;-41
2022/09/07 04:22:17;;;;;;;2.30;1.25;;;20.80;61.80;;;;;;4161256;28;20041;-44
2022/09/07 04:24:39;;;;;;;3.28;1.10;;;20.80;61.90;;;;;;4160544;28;20056;-43
2022/09/07 04:27:02;;;;;;;2.50;0.93;;;20.90;61.90;;;;;;4160942;28;20052;-41
2022/09/07 04:29:24;;;;;;;5.43;1.02;;;20.90;61.90;;;;;;4161119;28;20044;-43
2022/09/07 04:31:47;;;;;;;2.45;1.00;;;20.90;61.80;;;;;;4152854;28;20048;-41
2022/09/07 04:34:11;;;;;;;1.70;0.80;;;21.00;61.70;;;;;;4158915;28;20106;-46
2022/09/07 04:36:34;;;;;;;6.90;1.40;;;21.10;62.30;;;;;;4154094;28;20477;-46
2022/09/07 04:38:59;;;;;;;1.02;0.80;;;21.20;61.50;;;;;;4161478;28;20120;-46
2022/09/07 04:41:21;;;;;;;2.58;0.70;;;21.30;61.40;;;;;;4148607;28;20048;-42
2022/09/07 04:43:46;;;;;;;1.17;0.90;;;21.40;61.30;;;;;;4154906;28;20072;-44
2022/09/07 04:46:18;;;;;;;;;;;21.40;61.10;;;;;;4156389;28;20081;-43
2022/09/07 04:48:40;;;;;;;2.25;0.90;;;21.50;61.10;;;;;;4147790;28;19924;-43
2022/09/07 04:51:08;;;;;;;2.20;0.80;;;21.60;60.90;;;;;;4142703;28;20041;-43
2022/09/07 04:53:31;;;;;;;2.20;0.70;;;21.70;60.70;;;;;;4153800;28;20041;-42
2022/09/07 04:55:54;;;;;;;1.80;0.80;;;21.80;60.60;;;;;;4151366;28;20037;-42
2022/09/07 04:58:16;;;;;;;3.80;0.75;;;21.80;60.80;;;;;;4152214;28;20037;-44
2022/09/07 05:00:39;;;;;;;3.47;0.90;;;21.70;60.80;;;;;;4148211;28;20197;-44
2022/09/07 05:03:01;;;;;;;2.53;0.70;;;21.70;60.90;;;;;;4148754;28;20154;-43
2022/09/07 05:05:24;;;;;;;1.00;0.70;;;21.80;61.00;;;;;;4147746;28;20041;-42
2022/09/07 05:07:46;;;;;;;2.78;0.90;;;21.80;61.00;;;;;;4156581;28;20038;-41
2022/09/07 05:10:09;;;;;;;1.58;0.80;;;21.90;61.10;;;;;;4155577;28;20244;-44
2022/09/07 05:12:31;;;;;;;2.75;0.93;;;21.90;60.90;;;;;;4155522;28;20140;-43
2022/09/07 05:14:54;;;;;;;1.48;0.93;;;21.90;60.90;;;;;;4147663;28;20855;-44
2022/09/07 05:17:18;;;;;;;2.10;0.57;;;21.90;60.80;;;;;;4151511;28;20545;-42
2022/09/07 05:19:40;;;;;;;1.75;0.82;;;21.90;60.90;;;;;;4148240;28;20033;-43
2022/09/07 05:22:03;;;;;;;0.63;0.40;;;22.00;60.90;;;;;;4149427;28;20575;-45
2022/09/07 05:24:26;;;;;;;2.90;0.63;;;22.00;60.70;;;;;;4147254;28;20752;-42
2022/09/07 05:26:48;;;;;;;1.58;0.70;;;22.00;60.20;;;;;;4148870;28;20481;-42
2022/09/07 05:29:11;;;;;;;2.08;0.50;;;22.00;60.30;;;;;;4148451;28;20131;-42
2022/09/07 05:31:33;;;;;;;1.52;0.50;;;22.00;60.50;;;;;;4144001;28;20465;-45
2022/09/07 05:33:57;;;;;;;4.20;0.63;;;22.10;60.50;;;;;;4149304;28;20276;-43
2022/09/07 05:36:22;;;;;;;2.40;0.60;;;22.10;60.30;;;;;;4149736;28;20508;-47
2022/09/07 05:38:44;;;;;;;2.05;0.60;;;22.10;60.50;;;;;;4150602;28;20041;-43
2022/09/07 05:41:15;;;;;;;1.15;0.70;;;22.10;60.50;;;;;;4146850;28;20100;-45
2022/09/07 05:43:38;;;;;;;0.73;0.65;;;22.20;60.50;;;;;;4152195;28;20538;-43
2022/09/07 05:46:01;;;;;;;1.42;0.55;;;22.20;60.50;;;;;;4149459;28;20034;-43
2022/09/07 05:48:23;;;;;;;2.28;0.70;;;22.20;60.50;;;;;;4147017;28;20037;-43
2022/09/07 05:50:53;;;;;;;1.00;0.50;;;22.20;60.40;;;;;;4153018;28;20044;-45
2022/09/07 05:53:15;;;;;;;1.23;0.63;;;22.20;60.40;;;;;;4151641;28;20052;-44
2022/09/07 05:55:37;;;;;;;0.88;0.60;;;22.20;60.40;;;;;;4148709;28;20037;-45
2022/09/07 05:58:00;;;;;;;0.82;0.60;;;22.20;60.50;;;;;;4150952;28;20083;-44
2022/09/07 06:00:23;;;;;;;0.90;0.40;;;22.30;60.50;;;;;;4149840;28;20064;-41
2022/09/07 06:02:45;;;;;;;1.23;0.57;;;22.30;60.30;;;;;;4155992;28;20589;-48
2022/09/07 06:05:10;;;;;;;1.15;0.50;;;22.30;60.30;;;;;;4152465;28;20057;-44
2022/09/07 06:07:32;;;;;;;0.60;0.50;;;22.30;60.20;;;;;;4147899;28;20531;-48
2022/09/07 06:09:55;;;;;;;0.73;0.60;;;22.40;60.20;;;;;;4149068;28;20080;-43
2022/09/07 06:12:17;;;;;;;1.38;0.70;;;22.40;60.30;;;;;;4149198;28;20449;-43
2022/09/07 06:14:39;;;;;;;1.05;0.55;;;22.40;60.30;;;;;;4151614;28;20183;-44
2022/09/07 06:17:02;;;;;;;1.58;0.60;;;22.40;60.20;;;;;;4154050;28;20045;-45
2022/09/07 06:19:25;;;;;;;0.98;0.73;;;22.40;60.40;;;;;;4153309;28;20419;-43
2022/09/07 06:21:47;;;;;;;0.90;0.45;;;22.40;60.30;;;;;;4152305;28;20470;-43
2022/09/07 06:24:10;;;;;;;1.75;0.77;;;22.40;60.50;;;;;;4155641;28;20122;-46
2022/09/07 06:26:33;;;;;;;1.85;0.70;;;22.40;60.30;;;;;;4147283;28;21020;-44
2022/09/07 06:28:55;;;;;;;3.15;0.50;;;22.40;60.30;;;;;;4155578;28;20068;-44
2022/09/07 06:31:20;;;;;;;0.57;0.50;;;22.50;60.50;;;;;;4158770;28;20469;-47
2022/09/07 06:33:44;;;;;;;2.58;0.68;;;22.50;60.40;;;;;;4160485;28;20080;-44
2022/09/07 06:36:12;;;;;;;0.32;0.32;;;22.50;61.00;;;;;;4152367;28;20041;-48
2022/09/07 06:38:36;;;;;;;0.80;0.40;;;22.50;60.50;;;;;;4150350;28;20037;-44
2022/09/07 06:41:10;;;;;;;0.40;0.40;;;22.40;60.30;;;;;;4149597;28;20414;-46
2022/09/07 06:43:32;;;;;;;0.85;0.60;;;22.50;60.50;;;;;;4151562;28;20041;-45
2022/09/07 06:45:55;;;;;;;1.83;0.60;;;22.50;60.50;;;;;;4147212;28;20526;-44
2022/09/07 06:48:18;;;;;;;5.13;0.90;;;22.50;60.40;;;;;;4144452;28;20037;-46
2022/09/07 06:50:40;;;;;;;0.73;0.60;;;22.50;60.00;;;;;;4148492;28;20045;-45
2022/09/07 06:53:03;;;;;;;0.45;0.45;;;22.50;60.00;;;;;;4149320;28;20076;-46
2022/09/07 06:55:26;;;;;;;2.95;0.77;;;22.40;60.10;;;;;;4149806;28;20071;-43
2022/09/07 06:57:52;;;;;;;1.02;0.57;;;22.40;60.20;;;;;;4146122;28;20159;-42
2022/09/07 07:00:15;;;;;;;1.25;0.60;;;22.40;60.30;;;;;;4151538;28;20036;-41
2022/09/07 07:02:37;;;;;;;0.50;0.40;;;22.40;60.30;;;;;;4153251;28;20442;-43
2022/09/07 07:05:00;;;;;;;1.63;0.77;;;22.30;60.40;;;;;;4159111;28;20049;-45
2022/09/07 07:07:22;;;;;;;1.05;0.60;;;22.40;60.60;;;;;;4159586;28;20034;-42
2022/09/07 07:09:45;;;;;;;2.60;1.00;;;22.30;60.40;;;;;;4157452;28;20037;-43
2022/09/07 07:12:08;;;;;;;2.08;0.68;;;22.30;60.60;;;;;;4163881;28;20805;-42
2022/09/07 07:14:31;;;;;;;2.27;0.57;;;22.30;60.60;;;;;;4157464;28;20058;-44
2022/09/07 07:16:54;;;;;;;0.68;0.55;;;22.30;60.60;;;;;;4159839;28;20438;-44
2022/09/07 07:19:16;;;;;;;1.05;0.60;;;22.30;60.60;;;;;;4160338;28;20044;-45
2022/09/07 07:21:39;;;;;;;0.60;0.60;;;22.30;60.70;;;;;;4149808;28;20041;-42
2022/09/07 07:24:01;;;;;;;1.15;0.70;;;22.30;60.60;;;;;;4150583;28;20145;-42
2022/09/07 07:26:27;;;;;;;0.73;0.60;;;22.30;60.60;;;;;;4155792;28;20032;-42
2022/09/07 07:28:53;;;;;;;0.85;0.50;;;22.30;60.50;;;;;;4151909;28;20555;-42
2022/09/07 07:31:18;;;;;;;1.25;0.70;;;22.30;60.50;;;;;;4151113;28;20051;-45
2022/09/07 07:33:41;;;;;;;0.85;0.63;;;22.30;60.60;;;;;;4155321;28;20489;-47
2022/09/07 07:36:24;;;;;;;3.97;0.80;;;22.30;60.70;;;;;;4154527;28;20079;-45
2022/09/07 07:38:49;;;;;;;0.80;0.70;;;22.30;60.80;;;;;;4143937;28;20037;-48
2022/09/07 07:41:13;;;;;;;3.60;0.70;;;22.30;60.70;;;;;;4142539;28;20366;-44
2022/09/07 07:43:35;;;;;;;1.10;0.50;;;22.30;60.70;;;;;;4144912;28;20478;-47
2022/09/07 07:45:58;;;;;;;0.90;0.80;;;22.30;60.70;;;;;;4150524;28;20053;-46
2022/09/07 07:48:21;;;;;;;2.60;0.98;;;22.30;60.70;;;;;;4150021;28;20030;-44
2022/09/07 07:50:43;;;;;;;1.83;0.82;;;22.20;60.70;;;;;;4147094;28;20033;-47
2022/09/07 07:53:06;;;;;;;3.72;1.00;;;22.20;60.70;;;;;;4144898;28;20722;-47
2022/09/07 07:55:29;;;;;;;1.60;0.75;;;22.20;60.80;;;;;;4149691;28;20780;-46
2022/09/07 07:57:52;;;;;;;0.85;0.70;;;22.20;60.90;;;;;;4145928;28;20124;-49
2022/09/07 08:00:15;;;;;;;1.38;0.60;;;22.20;60.90;;;;;;4148296;28;20124;-46
2022/09/07 08:02:37;;;;;;;2.50;0.93;;;22.10;60.80;;;;;;4145745;28;20045;-48
2022/09/07 08:05:00;;;;;;;0.95;0.77;;;22.10;60.80;;;;;;4147846;28;20447;-46
2022/09/07 08:07:23;;;;;;;1.93;1.33;;;22.10;60.70;;;;;;4160386;28;20073;-46
2022/09/07 08:09:47;;;;;;;1.85;1.20;;;22.10;60.00;;;;;;4151267;28;20037;-45
2022/09/07 08:12:11;;;;;;;5.82;1.48;;;22.10;59.20;;;;;;4156960;28;20069;-46
2022/09/07 08:14:39;;;;;;;1.88;1.00;;;22.00;58.80;;;;;;4156104;28;20207;-45
2022/09/07 08:17:01;;;;;;;1.83;1.10;;;22.00;58.80;;;;;;4151557;28;20033;-47
2022/09/07 08:19:24;;;;;;;1.95;1.30;;;21.90;58.70;;;;;;4161984;28;20036;-44
2022/09/07 08:21:46;;;;;;;2.60;1.45;;;21.80;58.80;;;;;;4160873;28;20046;-43
2022/09/07 08:24:09;;;;;;;2.45;1.25;;;21.80;58.80;;;;;;4157131;28;20438;-46
2022/09/07 08:26:32;;;;;;;4.07;1.60;;;21.70;58.90;;;;;;4156590;28;20037;-44
2022/09/07 08:28:55;;;;;;;3.13;1.77;;;21.60;58.90;;;;;;4153403;28;20088;-45
2022/09/07 08:31:18;;;;;;;6.70;1.63;;;21.60;59.10;;;;;;4153656;28;20037;-49
2022/09/07 08:33:41;;;;;;;3.47;1.83;;;21.60;59.20;;;;;;4149459;28;20110;-46
2022/09/07 08:36:19;;;;;;;3.35;1.70;;;21.60;59.40;;;;;;4151792;28;20132;-44
2022/09/07 08:38:41;;;;;;;;;;;21.50;59.80;;;;;;4152555;28;20120;-44
2022/09/07 08:41:16;;;;;;;3.42;1.38;;;21.50;60.00;;;;;;4160514;28;19967;-43
2022/09/07 08:43:59;;;;;;;3.10;1.23;;;21.50;60.20;;;;;;4152354;28;20065;-44
2022/09/07 08:46:37;;;;;;;5.20;1.70;;;21.60;60.40;;;;;;4155171;28;20032;-43
2022/09/07 08:49:02;;;;;;;3.50;1.50;;;21.60;60.50;;;;;;4150957;28;20164;-45
2022/09/07 08:51:45;;;;;;;2.17;1.17;;;21.50;60.70;;;;;;4148562;28;21486;-45
2022/09/07 08:54:12;;;;;;;4.25;1.55;;;21.50;60.80;;;;;;4145784;28;20118;-48
2022/09/07 08:56:38;;;;;;;2.50;1.13;;;21.60;60.90;;;;;;4150977;28;20041;-45
2022/09/07 08:59:08;;;;;;;3.58;1.30;;;21.60;61.00;;;;;;4152757;28;20275;-51
2022/09/07 09:01:30;;;;;;;2.85;1.17;;;21.60;61.00;;;;;;4145562;28;20334;-45
2022/09/07 09:03:53;;;;;;;2.42;1.40;;;21.60;61.80;;;;;;4147870;28;20053;-48
2022/09/07 09:06:51;;;;;;;2.35;1.02;;;21.60;61.20;;;;;;4149941;28;20538;-50
2022/09/07 09:09:16;;;;;;;2.00;1.08;;;21.60;61.80;;;;;;4134756;28;20037;-45
2022/09/07 09:12:24;;;;;;;1.98;0.90;;;21.60;61.20;;;;;;4150555;28;20122;-48
2022/09/07 09:15:03;;;;;;;2.70;1.00;;;21.60;61.20;;;;;;4150564;28;20037;-45
2022/09/07 09:17:32;;;;;;;2.95;0.90;;;21.60;61.20;;;;;;4151933;28;20045;-45
2022/09/07 09:20:03;;;;;;;3.03;1.20;;;21.60;61.20;;;;;;4153066;28;20033;-50
2022/09/07 09:22:27;;;;;;;2.60;1.05;;;21.60;61.20;;;;;;4154834;28;20033;-46
2022/09/07 09:24:56;;;;;;;2.72;1.00;;;21.60;61.30;;;;;;4151362;28;20657;-45
2022/09/07 09:27:19;;;;;;;2.90;1.10;;;21.60;61.40;;;;;;4150334;28;20065;-44
2022/09/07 09:29:41;;;;;;;10.90;1.95;;;21.60;61.20;;;;;;4152497;28;20035;-46
2022/09/07 09:32:33;;;;;;;6.30;1.25;;;21.60;61.20;;;;;;4155177;28;20065;-42
2022/09/07 09:35:05;;;;;;;6.32;1.10;;;21.60;61.20;;;;;;4154661;28;20041;-41
2022/09/07 09:37:36;;;;;;;6.05;1.30;;;21.50;61.30;;;;;;4154005;28;20073;-47
2022/09/07 09:39:59;;;;;;;6.03;1.25;;;21.60;61.30;;;;;;4147934;28;20037;-42
2022/09/07 09:42:28;;;;;;;7.93;1.40;;;21.50;61.30;;;;;;4147049;28;20496;-50
2022/09/07 09:44:51;;;;;;;6.57;1.33;;;21.50;61.40;;;;;;4145548;28;20674;-48
2022/09/07 09:47:27;;;;;;;4.75;1.25;;;21.50;61.40;;;;;;4147555;28;20080;-42
2022/09/07 09:49:52;;;;;;;4.03;1.00;;;21.50;61.40;;;;;;4133071;28;20810;-45
2022/09/07 09:52:20;;;;;;;4.05;1.30;;;21.50;61.60;;;;;;4151506;28;20583;-47
2022/09/07 09:54:44;;;;;;;2.70;1.33;;;21.50;61.60;;;;;;4153804;28;20481;-43
2022/09/07 09:57:06;;;;;;;;;;;21.40;61.50;;;;;;4150133;28;20037;-40
2022/09/07 09:59:31;;;;;;;5.70;1.08;;;21.40;61.60;;;;;;4152208;28;20026;-45
2022/09/07 10:01:54;;;;;;;1.70;0.85;;;21.40;61.80;;;;;;4148050;28;20041;-46
2022/09/07 10:04:26;;;;;;;8.27;1.17;;;21.40;61.70;;;;;;4149177;28;20072;-42
2022/09/07 10:06:55;;;;;;;3.20;0.90;;;21.40;61.80;;;;;;4138961;28;20104;-42
2022/09/07 10:09:25;;;;;;;0.90;0.50;;;21.40;61.90;;;;;;4150650;28;20117;-43
2022/09/07 10:12:04;;;;;;;1.42;1.08;;;21.30;61.80;;;;;;4152643;28;20049;-48
2022/09/07 10:14:30;;;;;;;1.83;0.70;;;21.40;62.00;;;;;;4151585;28;20042;-46
2022/09/07 10:16:53;;;;;;;6.18;1.50;;;21.30;62.00;;;;;;4150359;28;20575;-48
2022/09/07 10:19:44;;;;;;;3.20;0.98;;;21.30;62.00;;;;;;4149759;28;20045;-44
2022/09/07 10:22:22;;;;;;;4.82;1.23;;;21.30;62.10;;;;;;4151081;28;20129;-44
2022/09/07 10:24:45;;;;;;;2.95;0.93;;;21.20;62.20;;;;;;4158682;28;20572;-47
2022/09/07 10:27:29;;;;;;;2.67;0.90;;;21.30;62.30;;;;;;4153341;28;20160;-44
2022/09/07 10:29:53;;;;;;;3.20;0.73;;;21.20;62.40;;;;;;4149461;28;20493;-44
2022/09/07 10:32:45;;;;;;;1.63;0.80;;;21.20;62.40;;;;;;4149512;28;20103;-44
2022/09/07 10:35:30;;;;;;;4.03;1.08;;;21.20;62.60;;;;;;4149924;28;20048;-44
2022/09/07 10:38:12;;;;;;;4.65;0.98;;;21.20;62.70;;;;;;4144849;28;20059;-42
2022/09/07 10:40:44;;;;;;;4.72;1.00;;;21.20;62.80;;;;;;4147563;28;20041;-42
2022/09/07 10:43:14;;;;;;;6.35;0.90;;;21.20;63.00;;;;;;4157815;28;20040;-48
2022/09/07 10:46:06;;;;;;;2.38;0.93;;;21.20;63.60;;;;;;4146223;28;20132;-45
2022/09/07 10:49:09;;;;;;;4.13;1.02;;;21.10;63.00;;;;;;4117908;28;20040;-43
2022/09/07 10:51:47;;;;;;;1.55;1.00;;;21.10;63.10;;;;;;4146849;28;20034;-44
2022/09/07 10:54:34;;;;;;;2.42;1.13;;;21.10;63.10;;;;;;4153632;28;20489;-43
2022/09/07 10:57:05;;;;;;;3.42;1.05;;;21.10;61.70;;;;;;4149402;28;20122;-42
2022/09/07 10:59:34;;;;;;;2.05;1.30;;;21.10;61.00;;;;;;4152017;28;20048;-43
2022/09/07 11:02:15;;;;;;;2.72;1.20;;;21.10;60.80;;;;;;4155572;28;20108;-43
2022/09/07 11:05:02;;;;;;;4.07;1.33;;;21.00;60.90;;;;;;4160704;28;20140;-44
2022/09/07 11:07:45;;;;;;;3.22;1.30;;;21.00;61.00;;;;;;4158917;28;20041;-42
2022/09/07 11:10:22;;;;;;;3.38;1.42;;;20.90;61.00;;;;;;4153760;28;20142;-44
2022/09/07 11:12:47;;;;;;;1.88;1.05;;;20.90;61.60;;;;;;4155826;28;20030;-43
2022/09/07 11:15:12;;;;;;;1.73;1.10;;;20.90;60.80;;;;;;4156184;28;20430;-46
2022/09/07 11:18:00;;;;;;;2.25;1.33;;;20.90;61.60;;;;;;4155924;28;20033;-44
2022/09/07 11:20:54;;;;;;;1.83;1.08;;;20.80;62.20;;;;;;4158060;28;20044;-46
2022/09/07 11:23:35;;;;;;;3.58;1.45;;;20.90;62.50;;;;;;4154661;28;20041;-46
2022/09/07 11:26:06;;;;;;;2.40;1.13;;;20.90;62.70;;;;;;4158139;28;20430;-44
2022/09/07 11:28:46;;;;;;;3.83;1.35;;;20.90;63.10;;;;;;4154303;28;20044;-47
2022/09/07 11:31:40;;;;;;;2.08;1.10;;;21.00;63.40;;;;;;4135038;28;20719;-47
2022/09/07 11:34:15;;;;;;;3.17;0.82;;;21.00;63.30;;;;;;4153777;28;20041;-44
2022/09/07 11:36:50;;;;;;;1.55;0.80;;;21.00;63.20;;;;;;4162745;28;20115;-44
2022/09/07 11:39:19;;;;;;;1.20;0.80;;;21.10;63.20;;;;;;4160697;28;20442;-42
2022/09/07 11:42:09;;;;;;;1.75;1.08;;;21.10;63.20;;;;;;4156900;28;20038;-48
2022/09/07 11:44:40;;;;;;;1.23;0.80;;;21.10;63.10;;;;;;4160796;28;20056;-47
2022/09/07 11:47:11;;;;;;;0.88;0.80;;;21.10;63.20;;;;;;4165052;28;20033;-50
2022/09/07 11:49:33;;;;;;;1.65;0.90;;;21.10;63.10;;;;;;4161691;28;20098;-50
2022/09/07 11:52:13;;;;;;;2.15;0.85;;;21.10;63.00;;;;;;4151793;28;20100;-47
2022/09/07 11:54:36;;;;;;;0.80;0.75;;;21.20;63.00;;;;;;4158607;28;20120;-44
2022/09/07 11:57:22;;;;;;;1.25;1.00;;;21.20;63.00;;;;;;4158059;28;20045;-45
2022/09/07 11:59:57;;;;;;;1.48;0.85;;;21.20;63.00;;;;;;4151925;28;20037;-44
2022/09/07 12:02:50;;;;;;;1.77;0.85;;;21.20;63.00;;;;;;4160356;28;20051;-46
2022/09/07 12:05:49;;;;;;;1.08;0.65;;;21.20;62.90;;;;;;4162012;28;20067;-45
2022/09/07 12:08:24;;;;;;;1.10;0.70;;;21.20;62.90;;;;;;4158292;28;20130;-45
2022/09/07 12:11:18;;;;;;;1.20;0.90;;;21.20;62.80;;;;;;4165571;28;20102;-47
2022/09/07 12:13:58;;;;;;;1.80;0.90;;;21.20;62.80;;;;;;4159262;28;20436;-44
2022/09/07 12:16:45;;;;;;;2.13;0.88;;;21.20;62.70;;;;;;4153054;28;20856;-45
2022/09/07 12:19:23;;;;;;;1.05;0.60;;;21.20;62.70;;;;;;4152839;28;20037;-42
2022/09/07 12:21:51;;;;;;;1.63;0.75;;;21.20;62.80;;;;;;4154322;28;20397;-49
2022/09/07 12:24:34;;;;;;;1.27;0.80;;;21.20;62.70;;;;;;4155817;28;20053;-43
2022/09/07 12:26:58;;;;;;;1.77;0.90;;;21.20;62.70;;;;;;4148486;28;20490;-47
2022/09/07 12:29:22;;;;;;;;;;;21.20;62.70;;;;;;4145016;28;20080;-45
2022/09/07 12:31:50;;;;;;;0.90;0.70;;;21.20;62.60;;;;;;4152414;28;19935;-45
2022/09/07 12:34:31;;;;;;;13.90;1.85;;;21.20;62.20;;;;;;4163994;28;20049;-43
2022/09/07 12:36:53;;;;;;;29.05;3.80;;;21.20;61.70;;;;;;4148913;28;20041;-49
2022/09/07 12:39:27;;;;;;;31.67;3.00;;;21.20;61.70;;;;;;4150765;28;20029;-45
2022/09/07 12:42:09;;;;;;;19.63;2.70;;;21.20;61.90;;;;;;4149722;28;20431;-45
2022/09/07 12:44:32;;;;;;;17.25;2.33;;;21.10;62.00;;;;;;4152247;28;20050;-46
2022/09/07 12:46:55;;;;;;;;;;;21.10;62.20;;;;;;4154592;28;20116;-47
2022/09/07 12:49:30;;;;;;;13.18;2.05;;;21.10;62.40;;;;;;4147931;28;20306;-45
2022/09/07 12:52:12;;;;;;;;;;;21.00;62.60;;;;;;4151327;28;20124;-45
2022/09/07 12:54:41;;;;;;;7.97;1.67;;;21.00;62.70;;;;;;4152614;28;19951;-43
2022/09/07 12:57:29;;;;;;;17.08;1.67;;;21.00;62.90;;;;;;4152074;28;20041;-46
2022/09/07 12:59:58;;;;;;;4.97;1.33;;;21.00;63.10;;;;;;4151988;28;20040;-44